Time;durP1;ratioP1;P1;durP2;ratioP2;P2;SDS_P1;SDS_P2;PMS_P1;PMS_P2;Temp;Humidity;BMP_temperature;BMP_pressure;BME280_temperature;BME280_humidity;BME280_pressure;Samples;Min_cycle;Max_cycle;Signal;HPM_P1;HPM_P2
2023/12/24 00:01:03;;;;;;;5.20;3.70;;;10.60;99.90;;;;;;5052667;28;20723;-71
2023/12/24 00:03:28;;;;;;;7.67;3.77;;;10.60;99.90;;;;;;5052202;28;20189;-72
2023/12/24 00:05:54;;;;;;;3.97;3.20;;;10.60;99.90;;;;;;5052130;28;20569;-71
2023/12/24 00:08:20;;;;;;;4.37;3.30;;;10.60;99.90;;;;;;5052310;28;20183;-72
2023/12/24 00:10:45;;;;;;;4.80;3.80;;;10.60;99.90;;;;;;5047347;28;20596;-72
2023/12/24 00:13:11;;;;;;;4.10;3.33;;;10.60;99.90;;;;;;5033011;28;20701;-72
2023/12/24 00:15:37;;;;;;;4.10;3.80;;;10.60;99.90;;;;;;5032047;28;20217;-72
2023/12/24 00:18:02;;;;;;;3.17;2.97;;;10.60;99.90;;;;;;5032291;28;20190;-72
2023/12/24 00:20:28;;;;;;;3.50;3.30;;;10.50;99.90;;;;;;5032624;28;20198;-72
2023/12/24 00:23:08;;;;;;;3.50;3.20;;;10.50;99.90;;;;;;5032631;28;20198;-73
2023/12/24 00:25:37;;;;;;;3.70;3.50;;;10.50;99.90;;;;;;5035469;28;20322;-71
2023/12/24 00:28:04;;;;;;;3.53;3.30;;;10.40;99.90;;;;;;5053155;28;20214;-72
2023/12/24 00:30:30;;;;;;;7.17;3.90;;;10.30;99.90;;;;;;5051881;28;20247;-71
2023/12/24 00:32:56;;;;;;;3.67;3.47;;;10.20;99.90;;;;;;5051805;28;20202;-73
2023/12/24 00:35:23;;;;;;;3.30;3.10;;;10.20;99.90;;;;;;5047249;28;20202;-71
2023/12/24 00:37:50;;;;;;;3.80;3.30;;;10.10;99.90;;;;;;5032168;28;20224;-71
2023/12/24 00:40:17;;;;;;;3.63;3.40;;;10.10;99.90;;;;;;5051966;28;20631;-71
2023/12/24 00:42:42;;;;;;;3.83;3.37;;;10.00;99.90;;;;;;5033931;28;20625;-71
2023/12/24 00:45:09;;;;;;;3.90;3.70;;;9.90;99.90;;;;;;5051459;28;20222;-71
2023/12/24 00:47:35;;;;;;;4.67;4.37;;;9.80;99.90;;;;;;5051464;28;20182;-72
2023/12/24 00:50:00;;;;;;;4.10;3.80;;;9.80;99.90;;;;;;5050965;28;20162;-71
2023/12/24 00:52:26;;;;;;;3.83;3.53;;;9.90;99.90;;;;;;5031668;28;20296;-72
2023/12/24 00:54:52;;;;;;;4.93;3.40;;;9.90;99.90;;;;;;5031482;28;20629;-72
2023/12/24 00:57:17;;;;;;;3.37;3.17;;;10.00;99.90;;;;;;5031784;28;20600;-73
2023/12/24 00:59:43;;;;;;;4.23;3.93;;;10.10;99.90;;;;;;5031809;28;20634;-72
2023/12/24 01:02:09;;;;;;;3.50;3.30;;;10.20;99.90;;;;;;5031455;28;20250;-71
2023/12/24 01:04:34;;;;;;;4.60;4.30;;;10.20;99.90;;;;;;5031335;28;20211;-72
2023/12/24 01:07:00;;;;;;;4.10;3.60;;;10.20;99.90;;;;;;5050237;28;20186;-71
2023/12/24 01:09:26;;;;;;;3.50;3.30;;;10.20;99.90;;;;;;5033502;28;20700;-71
2023/12/24 01:11:53;;;;;;;3.37;3.17;;;10.20;99.90;;;;;;5051250;28;20210;-72
2023/12/24 01:14:19;;;;;;;4.03;3.13;;;10.20;99.90;;;;;;5051010;28;20217;-72
2023/12/24 01:16:44;;;;;;;3.40;3.20;;;10.10;99.90;;;;;;5051196;28;20167;-71
2023/12/24 01:19:10;;;;;;;3.60;3.37;;;9.90;99.90;;;;;;5051399;28;20712;-72
2023/12/24 01:21:36;;;;;;;3.93;3.50;;;9.80;99.90;;;;;;5032892;28;20194;-72
2023/12/24 01:24:01;;;;;;;3.60;3.40;;;9.70;99.90;;;;;;5031083;28;20172;-71
2023/12/24 01:26:27;;;;;;;3.53;3.33;;;9.70;99.90;;;;;;5031054;28;20240;-72
2023/12/24 01:28:52;;;;;;;3.60;3.40;;;9.70;99.90;;;;;;5031285;28;20179;-72
2023/12/24 01:31:19;;;;;;;3.43;3.30;;;9.70;99.90;;;;;;5031223;28;20704;-71
2023/12/24 01:33:44;;;;;;;3.90;3.23;;;9.70;99.90;;;;;;5046102;28;20313;-72
2023/12/24 01:36:10;;;;;;;3.33;3.13;;;9.70;99.90;;;;;;5054892;28;20273;-71
2023/12/24 01:38:36;;;;;;;3.70;3.50;;;9.70;99.90;;;;;;5055136;28;20650;-72
2023/12/24 01:41:01;;;;;;;3.90;3.47;;;9.70;99.90;;;;;;5055218;28;20178;-71
2023/12/24 01:43:27;;;;;;;3.80;3.60;;;9.70;99.90;;;;;;5054855;28;20170;-71
2023/12/24 01:45:53;;;;;;;4.17;3.43;;;9.80;99.90;;;;;;5055472;28;20194;-71
2023/12/24 01:48:21;;;;;;;3.80;3.50;;;9.90;99.90;;;;;;5048015;28;20187;-72
2023/12/24 01:50:48;;;;;;;3.40;3.00;;;9.90;99.90;;;;;;5035903;28;20203;-71
2023/12/24 01:53:16;;;;;;;3.27;2.97;;;9.90;99.90;;;;;;5035008;28;20594;-71
2023/12/24 01:55:43;;;;;;;3.57;3.20;;;10.00;99.90;;;;;;5034678;28;20612;-71
2023/12/24 01:58:08;;;;;;;3.50;3.20;;;10.00;99.90;;;;;;5034977;28;20179;-72
2023/12/24 02:00:35;;;;;;;3.40;3.20;;;10.10;99.90;;;;;;5038432;28;20543;-72
2023/12/24 02:03:02;;;;;;;4.60;3.10;;;10.10;99.90;;;;;;5054947;28;20181;-72
2023/12/24 02:05:28;;;;;;;3.60;3.30;;;10.20;99.90;;;;;;5054374;28;20198;-71
2023/12/24 02:07:55;;;;;;;3.90;3.60;;;10.20;99.90;;;;;;5054670;28;20182;-72
2023/12/24 02:10:22;;;;;;;4.80;3.30;;;10.20;99.90;;;;;;5054646;28;20560;-71
2023/12/24 02:12:47;;;;;;;3.33;3.00;;;10.30;99.90;;;;;;5054592;28;20234;-71
2023/12/24 02:15:13;;;;;;;3.30;3.13;;;10.20;99.90;;;;;;5051139;28;20223;-71
2023/12/24 02:17:39;;;;;;;3.67;3.33;;;10.30;99.90;;;;;;5034563;28;20168;-72
2023/12/24 02:20:06;;;;;;;3.20;3.00;;;10.30;99.90;;;;;;5034856;28;20194;-72
2023/12/24 02:22:31;;;;;;;2.90;2.80;;;10.30;99.90;;;;;;5035874;28;20234;-71
2023/12/24 02:24:57;;;;;;;3.10;3.00;;;10.30;99.90;;;;;;5034504;28;20226;-71
2023/12/24 02:27:31;;;;;;;3.20;3.00;;;10.30;99.90;;;;;;5034252;28;20194;-72
2023/12/24 02:30:02;;;;;;;7.23;2.93;;;10.30;99.90;;;;;;5034532;28;20176;-71
2023/12/24 02:32:29;;;;;;;3.20;3.10;;;10.20;99.90;;;;;;5034189;28;20675;-72
2023/12/24 02:34:59;;;;;;;3.27;3.07;;;10.20;99.90;;;;;;5051294;28;20195;-71
2023/12/24 02:37:25;;;;;;;3.20;3.00;;;10.20;99.90;;;;;;5053992;28;20254;-71
2023/12/24 02:39:50;;;;;;;3.40;3.30;;;10.10;99.90;;;;;;5052707;28;20619;-71
2023/12/24 02:42:16;;;;;;;3.50;3.20;;;10.10;99.90;;;;;;5034197;28;20174;-71
2023/12/24 02:44:42;;;;;;;3.70;3.50;;;10.10;99.90;;;;;;5033688;28;20192;-71
2023/12/24 02:47:07;;;;;;;3.43;3.20;;;10.10;99.90;;;;;;5034413;28;20618;-72
2023/12/24 02:49:33;;;;;;;3.30;3.10;;;10.10;99.90;;;;;;5033921;28;20175;-72
2023/12/24 02:51:59;;;;;;;3.50;3.20;;;10.10;99.90;;;;;;5033753;28;20199;-72
2023/12/24 02:54:24;;;;;;;3.67;3.47;;;10.00;99.90;;;;;;5033579;28;20198;-72
2023/12/24 02:56:50;;;;;;;3.43;3.23;;;9.90;99.90;;;;;;5052906;28;20512;-72
2023/12/24 02:59:15;;;;;;;3.43;3.23;;;9.80;99.90;;;;;;5053709;28;20163;-72
2023/12/24 03:01:41;;;;;;;3.53;3.23;;;9.80;99.90;;;;;;5053431;28;20167;-72
2023/12/24 03:04:07;;;;;;;3.10;3.00;;;9.70;99.90;;;;;;5053536;28;20185;-72
2023/12/24 03:06:32;;;;;;;3.63;3.40;;;9.70;99.90;;;;;;5053427;28;20540;-71
2023/12/24 03:08:58;;;;;;;5.33;3.57;;;9.60;99.90;;;;;;5054176;28;20167;-71
2023/12/24 03:11:24;;;;;;;3.67;3.47;;;9.60;99.90;;;;;;5053189;28;20182;-72
2023/12/24 03:13:49;;;;;;;3.60;3.40;;;9.60;99.90;;;;;;5053796;28;20293;-71
2023/12/24 03:16:17;;;;;;;4.20;3.90;;;9.60;99.90;;;;;;5052975;28;20237;-71
2023/12/24 03:18:42;;;;;;;4.20;3.80;;;9.60;99.90;;;;;;5018962;28;20179;-72
2023/12/24 03:21:08;;;;;;;4.40;4.10;;;9.60;99.90;;;;;;5052968;28;20530;-71
2023/12/24 03:23:33;;;;;;;5.47;4.30;;;9.60;99.90;;;;;;5041532;28;20191;-72
2023/12/24 03:25:59;;;;;;;5.23;4.73;;;9.60;99.90;;;;;;5033065;28;20275;-71
2023/12/24 03:28:25;;;;;;;4.90;4.50;;;9.60;99.90;;;;;;5032944;28;20512;-72
2023/12/24 03:30:50;;;;;;;4.70;4.40;;;9.60;99.90;;;;;;5033075;28;20202;-72
2023/12/24 03:33:16;;;;;;;4.87;4.47;;;9.70;99.90;;;;;;5032924;28;20206;-71
2023/12/24 03:35:43;;;;;;;4.87;4.47;;;9.70;99.90;;;;;;5032440;28;20278;-71
2023/12/24 03:38:09;;;;;;;5.00;4.60;;;9.70;99.90;;;;;;5042316;28;20642;-71
2023/12/24 03:40:34;;;;;;;4.83;4.53;;;9.70;99.90;;;;;;5053003;28;20182;-71
2023/12/24 03:43:00;;;;;;;5.27;4.93;;;9.70;99.90;;;;;;5052942;28;20235;-71
2023/12/24 03:45:26;;;;;;;4.93;4.63;;;9.70;99.90;;;;;;5052433;28;20198;-71
2023/12/24 03:47:51;;;;;;;5.03;4.63;;;9.60;99.90;;;;;;5052701;28;20174;-71
2023/12/24 03:50:17;;;;;;;4.77;4.40;;;9.70;99.90;;;;;;5052743;28;20186;-72
2023/12/24 03:52:43;;;;;;;6.47;4.73;;;9.70;99.90;;;;;;5044289;28;20207;-71
2023/12/24 03:55:09;;;;;;;4.43;4.17;;;9.70;99.90;;;;;;5032481;28;20199;-72
2023/12/24 03:57:34;;;;;;;3.97;3.77;;;9.70;99.90;;;;;;5032589;28;20175;-72
2023/12/24 04:00:00;;;;;;;3.60;3.40;;;9.70;99.90;;;;;;5032683;28;20175;-71
2023/12/24 04:02:26;;;;;;;3.70;3.50;;;9.70;99.90;;;;;;5032522;28;20176;-71
2023/12/24 04:04:52;;;;;;;3.60;3.40;;;9.70;99.90;;;;;;5033806;28;20245;-70
2023/12/24 04:07:17;;;;;;;4.00;3.70;;;9.60;99.90;;;;;;5052506;28;20245;-71
2023/12/24 04:09:43;;;;;;;4.07;3.77;;;9.70;99.90;;;;;;5043460;28;20271;-71
2023/12/24 04:12:09;;;;;;;4.07;3.87;;;9.60;99.90;;;;;;5032222;28;20659;-71
2023/12/24 04:14:39;;;;;;;3.70;3.50;;;9.60;99.90;;;;;;5031994;28;20711;-70
2023/12/24 04:17:05;;;;;;;3.90;3.70;;;9.60;99.90;;;;;;5031886;28;20182;-71
2023/12/24 04:19:30;;;;;;;3.40;3.30;;;9.60;99.90;;;;;;5031315;28;20167;-71
2023/12/24 04:21:56;;;;;;;3.30;3.20;;;9.60;99.90;;;;;;5037819;28;20265;-71
2023/12/24 04:24:22;;;;;;;3.53;3.27;;;9.70;99.90;;;;;;5051596;28;20191;-71
2023/12/24 04:26:47;;;;;;;3.73;3.43;;;9.60;99.90;;;;;;5028822;28;20186;-71
2023/12/24 04:29:13;;;;;;;3.97;3.30;;;9.60;99.90;;;;;;5046064;28;20190;-71
2023/12/24 04:31:39;;;;;;;3.40;3.30;;;9.60;99.90;;;;;;5032206;28;20585;-71
2023/12/24 04:34:06;;;;;;;3.63;3.43;;;9.60;99.90;;;;;;5048943;28;20259;-72
2023/12/24 04:36:33;;;;;;;3.60;3.40;;;9.60;99.90;;;;;;5052077;28;20179;-71
2023/12/24 04:38:58;;;;;;;3.70;3.50;;;9.60;99.90;;;;;;5051880;28;20197;-72
2023/12/24 04:41:26;;;;;;;3.70;3.50;;;9.60;99.90;;;;;;5051598;28;20221;-71
2023/12/24 04:43:52;;;;;;;3.50;3.30;;;9.60;99.90;;;;;;5033697;28;20189;-71
2023/12/24 04:46:18;;;;;;;3.40;3.30;;;9.60;99.90;;;;;;5051672;28;20667;-71
2023/12/24 04:48:43;;;;;;;3.37;3.27;;;9.60;99.90;;;;;;5036006;28;20187;-71
2023/12/24 04:51:10;;;;;;;3.30;3.20;;;9.60;99.90;;;;;;5031906;28;20647;-72
2023/12/24 04:53:36;;;;;;;3.67;3.57;;;9.50;99.90;;;;;;5031444;28;20334;-72
2023/12/24 04:56:02;;;;;;;3.47;3.33;;;9.50;99.90;;;;;;5031382;28;20714;-71
2023/12/24 04:58:27;;;;;;;3.53;3.43;;;9.50;99.90;;;;;;5031592;28;20175;-71
2023/12/24 05:00:53;;;;;;;3.37;3.27;;;9.50;99.90;;;;;;5040599;28;20217;-72
2023/12/24 05:03:19;;;;;;;3.30;3.20;;;9.50;99.90;;;;;;5051310;28;20175;-71
2023/12/24 05:05:44;;;;;;;3.20;3.10;;;9.50;99.90;;;;;;5050724;28;20191;-71
2023/12/24 05:08:10;;;;;;;3.63;3.43;;;9.50;99.90;;;;;;5051029;28;20634;-72
2023/12/24 05:10:35;;;;;;;3.50;3.40;;;9.50;99.90;;;;;;5051242;28;20170;-71
2023/12/24 05:13:01;;;;;;;3.47;3.37;;;9.50;99.90;;;;;;5051352;28;20198;-71
2023/12/24 05:15:27;;;;;;;3.37;3.23;;;9.50;99.90;;;;;;5025402;28;20246;-72
2023/12/24 05:17:52;;;;;;;3.40;3.30;;;9.50;99.90;;;;;;5031603;28;20245;-72
2023/12/24 05:20:18;;;;;;;3.47;3.20;;;9.50;99.90;;;;;;5031470;28;20180;-72
2023/12/24 05:22:44;;;;;;;3.33;3.23;;;9.50;99.90;;;;;;5031306;28;20198;-72
2023/12/24 05:25:10;;;;;;;3.60;3.50;;;9.50;99.90;;;;;;5031171;28;20195;-72
2023/12/24 05:27:36;;;;;;;3.50;3.40;;;9.50;99.90;;;;;;5030833;28;20171;-72
2023/12/24 05:30:01;;;;;;;3.20;3.10;;;9.50;99.90;;;;;;5037198;28;20183;-71
2023/12/24 05:32:27;;;;;;;3.40;3.30;;;9.50;99.90;;;;;;5050758;28;20205;-71
2023/12/24 05:34:53;;;;;;;3.10;3.00;;;9.50;99.90;;;;;;5050961;28;20221;-72
2023/12/24 05:37:18;;;;;;;3.30;3.20;;;9.50;99.90;;;;;;5051531;28;20519;-71
2023/12/24 05:39:44;;;;;;;3.20;3.10;;;9.50;99.90;;;;;;5051260;28;20162;-71
2023/12/24 05:42:09;;;;;;;3.10;3.00;;;9.60;99.90;;;;;;5051090;28;20167;-71
2023/12/24 05:44:35;;;;;;;3.20;3.10;;;9.60;99.90;;;;;;5045846;28;20227;-71
2023/12/24 05:47:01;;;;;;;4.40;3.07;;;9.60;99.90;;;;;;5030994;28;20172;-72
2023/12/24 05:49:27;;;;;;;3.43;3.30;;;9.60;99.90;;;;;;5030880;28;20174;-73
2023/12/24 05:51:53;;;;;;;3.33;3.23;;;9.60;99.90;;;;;;5030897;28;20172;-72
2023/12/24 05:54:19;;;;;;;3.20;3.10;;;9.60;99.90;;;;;;5030757;28;20254;-72
2023/12/24 05:56:45;;;;;;;3.10;3.00;;;9.60;99.90;;;;;;5039286;28;20207;-72
2023/12/24 05:59:10;;;;;;;3.33;3.23;;;9.60;99.90;;;;;;5051403;28;20678;-72
2023/12/24 06:01:36;;;;;;;3.37;3.27;;;9.60;99.90;;;;;;5050729;28;20770;-71
2023/12/24 06:04:02;;;;;;;3.63;3.43;;;9.60;99.90;;;;;;5050963;28;20197;-72
2023/12/24 06:06:28;;;;;;;3.60;3.40;;;9.60;99.90;;;;;;5050566;28;20225;-71
2023/12/24 06:08:54;;;;;;;3.30;3.20;;;9.60;99.90;;;;;;5051592;28;20175;-72
2023/12/24 06:11:20;;;;;;;3.40;3.30;;;9.60;99.90;;;;;;5032110;28;20221;-72
2023/12/24 06:13:45;;;;;;;3.40;3.30;;;9.60;99.90;;;;;;5050526;28;20202;-72
2023/12/24 06:16:12;;;;;;;3.50;3.33;;;9.70;99.90;;;;;;5050536;28;20757;-72
2023/12/24 06:18:39;;;;;;;3.90;3.70;;;9.60;99.90;;;;;;5052887;28;20174;-73
2023/12/24 06:21:06;;;;;;;3.30;3.20;;;9.70;99.90;;;;;;5054514;28;20220;-72
2023/12/24 06:23:34;;;;;;;3.73;3.53;;;9.70;99.90;;;;;;5052986;28;20266;-72
2023/12/24 06:26:00;;;;;;;3.40;3.20;;;9.70;99.90;;;;;;5034041;28;20200;-72
2023/12/24 06:28:26;;;;;;;3.83;3.63;;;9.70;99.90;;;;;;5034084;28;20229;-72
2023/12/24 06:30:51;;;;;;;3.70;3.50;;;9.70;99.90;;;;;;5047773;28;20174;-73
2023/12/24 06:33:17;;;;;;;3.83;3.50;;;9.70;99.90;;;;;;5054100;28;20202;-72
2023/12/24 06:35:42;;;;;;;3.30;3.20;;;9.70;99.90;;;;;;5053724;28;20187;-72
2023/12/24 06:38:08;;;;;;;3.33;3.23;;;9.80;99.90;;;;;;5054178;28;20582;-73
2023/12/24 06:40:34;;;;;;;3.10;3.00;;;9.70;99.90;;;;;;5054078;28;20686;-72
2023/12/24 06:43:00;;;;;;;3.30;3.20;;;9.80;99.90;;;;;;5053884;28;20171;-72
2023/12/24 06:45:26;;;;;;;3.20;3.10;;;9.70;99.90;;;;;;5041348;28;20632;-73
2023/12/24 06:47:52;;;;;;;3.10;3.00;;;9.70;99.90;;;;;;5016093;28;20283;-72
2023/12/24 06:50:18;;;;;;;3.53;3.43;;;9.70;99.90;;;;;;5033823;28;20176;-72
2023/12/24 06:52:44;;;;;;;3.70;3.50;;;9.80;99.90;;;;;;5033745;28;20202;-73
2023/12/24 06:55:09;;;;;;;3.37;3.27;;;9.80;99.90;;;;;;5033573;28;20191;-73
2023/12/24 06:57:35;;;;;;;3.47;3.30;;;9.80;99.90;;;;;;5035119;28;20347;-72
2023/12/24 07:00:00;;;;;;;3.60;3.40;;;9.80;99.90;;;;;;5033885;28;20262;-73
2023/12/24 07:02:26;;;;;;;3.40;3.30;;;9.80;99.90;;;;;;5033619;28;20184;-72
2023/12/24 07:04:52;;;;;;;3.30;3.10;;;9.80;99.90;;;;;;5033306;28;20278;-73
2023/12/24 07:07:17;;;;;;;3.20;3.10;;;9.80;99.90;;;;;;5033571;28;20249;-73
2023/12/24 07:09:43;;;;;;;3.23;3.13;;;9.90;99.90;;;;;;5042252;28;20190;-73
2023/12/24 07:12:08;;;;;;;3.30;3.20;;;9.90;99.90;;;;;;5036407;28;20585;-72
2023/12/24 07:14:34;;;;;;;3.50;3.30;;;9.90;99.90;;;;;;5032837;28;20191;-73
2023/12/24 07:16:59;;;;;;;3.40;3.30;;;9.90;99.90;;;;;;5033548;28;20251;-73
2023/12/24 07:19:25;;;;;;;3.20;3.10;;;9.90;99.90;;;;;;5033270;28;20549;-73
2023/12/24 07:21:51;;;;;;;3.40;3.30;;;9.90;99.90;;;;;;5033172;28;20188;-72
2023/12/24 07:24:16;;;;;;;3.77;3.57;;;9.90;99.90;;;;;;5041997;28;20182;-72
2023/12/24 07:26:42;;;;;;;3.50;3.30;;;9.90;99.90;;;;;;5053147;28;20175;-73
2023/12/24 07:29:08;;;;;;;3.80;3.60;;;9.90;99.90;;;;;;5052443;28;20196;-72
2023/12/24 07:31:33;;;;;;;3.70;3.50;;;9.90;99.90;;;;;;5052894;28;20247;-72
2023/12/24 07:33:59;;;;;;;3.57;3.37;;;10.00;99.90;;;;;;5052832;28;20202;-72
2023/12/24 07:36:25;;;;;;;3.90;3.60;;;10.00;99.90;;;;;;5036497;28;20306;-72
2023/12/24 07:38:50;;;;;;;3.73;3.53;;;10.00;99.90;;;;;;5032935;28;20182;-72
2023/12/24 07:41:16;;;;;;;4.10;3.90;;;10.00;99.90;;;;;;5032735;28;20167;-72
2023/12/24 07:43:42;;;;;;;3.60;3.40;;;10.10;99.90;;;;;;5032601;28;20183;-72
2023/12/24 07:46:08;;;;;;;3.80;3.60;;;10.10;99.90;;;;;;5032420;28;20191;-72
2023/12/24 07:48:34;;;;;;;4.50;4.30;;;10.10;99.90;;;;;;5032399;28;20183;-72
2023/12/24 07:50:59;;;;;;;4.00;3.80;;;10.20;99.90;;;;;;5034712;28;20175;-73
2023/12/24 07:53:25;;;;;;;3.90;3.60;;;10.20;99.90;;;;;;5033070;28;20289;-73
2023/12/24 07:55:51;;;;;;;3.90;3.70;;;10.20;99.90;;;;;;5031861;28;20250;-72
2023/12/24 07:58:16;;;;;;;3.90;3.70;;;10.20;99.90;;;;;;5032533;28;20255;-72
2023/12/24 08:00:42;;;;;;;3.80;3.60;;;10.20;99.90;;;;;;5036028;28;20171;-72
2023/12/24 08:03:07;;;;;;;3.70;3.50;;;10.20;99.90;;;;;;5052949;28;20171;-71
2023/12/24 08:05:33;;;;;;;4.10;3.90;;;10.30;99.90;;;;;;5051819;28;20301;-71
2023/12/24 08:07:59;;;;;;;3.73;3.50;;;10.30;99.90;;;;;;5034407;28;20183;-71
2023/12/24 08:10:25;;;;;;;3.87;3.57;;;10.40;99.90;;;;;;5049136;28;20255;-71
2023/12/24 08:12:50;;;;;;;3.50;3.30;;;10.50;99.90;;;;;;5038906;28;20336;-72
2023/12/24 08:15:21;;;;;;;4.00;3.70;;;10.50;99.90;;;;;;5051964;28;20269;-72
2023/12/24 08:17:47;;;;;;;3.67;3.47;;;10.60;99.90;;;;;;5046350;28;20179;-71
2023/12/24 08:20:13;;;;;;;3.70;3.50;;;10.70;99.90;;;;;;5032019;28;20187;-72
2023/12/24 08:22:38;;;;;;;3.33;3.17;;;10.70;99.90;;;;;;5031824;28;20218;-72
2023/12/24 08:25:04;;;;;;;3.27;3.07;;;10.70;99.90;;;;;;5033358;28;20195;-71
2023/12/24 08:27:30;;;;;;;3.80;3.50;;;10.80;99.90;;;;;;5032464;28;20180;-71
2023/12/24 08:29:56;;;;;;;3.10;2.90;;;10.90;99.90;;;;;;5045160;28;20654;-71
2023/12/24 08:32:21;;;;;;;3.23;2.97;;;10.90;99.90;;;;;;5040245;28;20261;-71
2023/12/24 08:34:47;;;;;;;3.20;3.10;;;11.00;99.90;;;;;;5051746;28;20201;-71
2023/12/24 08:37:13;;;;;;;3.50;3.20;;;11.00;99.90;;;;;;5051748;28;20209;-72
2023/12/24 08:39:38;;;;;;;3.60;3.40;;;11.00;99.90;;;;;;5052147;28;20258;-71
2023/12/24 08:42:04;;;;;;;3.57;3.43;;;11.10;99.90;;;;;;5051883;28;20167;-72
2023/12/24 08:44:30;;;;;;;3.43;3.23;;;11.10;99.90;;;;;;5051516;28;20194;-71
2023/12/24 08:46:55;;;;;;;3.63;3.43;;;11.10;99.90;;;;;;5050867;28;20230;-73
2023/12/24 08:49:23;;;;;;;3.57;3.43;;;11.00;99.90;;;;;;5051516;28;20317;-72
2023/12/24 08:51:49;;;;;;;3.10;2.90;;;10.90;99.90;;;;;;5051237;28;20167;-72
2023/12/24 08:54:14;;;;;;;3.10;3.00;;;10.90;99.90;;;;;;5051095;28;20626;-72
2023/12/24 08:56:40;;;;;;;3.37;3.17;;;10.90;99.90;;;;;;5051379;28;20265;-72
2023/12/24 08:59:07;;;;;;;3.30;3.10;;;10.80;99.90;;;;;;5049774;28;20191;-72
2023/12/24 09:01:33;;;;;;;3.93;3.17;;;10.70;99.90;;;;;;5051203;28;20167;-73
2023/12/24 09:04:00;;;;;;;3.30;3.10;;;10.70;99.90;;;;;;5039503;28;20201;-72
2023/12/24 09:06:26;;;;;;;3.00;2.90;;;10.60;99.90;;;;;;5051021;28;20190;-71
2023/12/24 09:08:52;;;;;;;3.30;3.10;;;10.60;99.90;;;;;;5044782;28;20190;-71
2023/12/24 09:11:18;;;;;;;3.87;3.57;;;10.60;99.90;;;;;;5043371;28;20647;-72
2023/12/24 09:13:43;;;;;;;3.27;3.10;;;10.60;99.90;;;;;;5031134;28;20207;-71
2023/12/24 09:16:09;;;;;;;3.83;3.63;;;10.50;99.90;;;;;;5031749;28;20203;-71
2023/12/24 09:18:34;;;;;;;3.77;3.50;;;10.60;99.90;;;;;;5031230;28;20182;-72
2023/12/24 09:21:00;;;;;;;4.00;3.40;;;10.60;99.90;;;;;;5031377;28;20683;-71
2023/12/24 09:23:25;;;;;;;3.33;3.13;;;10.60;99.90;;;;;;5031182;28;20186;-71
2023/12/24 09:25:51;;;;;;;3.60;3.40;;;10.70;99.90;;;;;;5031095;28;20203;-71
2023/12/24 09:28:17;;;;;;;4.20;3.90;;;10.70;99.90;;;;;;5032339;28;20595;-72
2023/12/24 09:30:42;;;;;;;3.63;3.43;;;10.60;99.90;;;;;;5031316;28;20171;-72
2023/12/24 09:33:08;;;;;;;3.60;3.30;;;10.60;99.90;;;;;;5030974;28;20206;-72
2023/12/24 09:35:35;;;;;;;4.07;3.70;;;10.60;99.90;;;;;;5030737;28;20741;-71
2023/12/24 09:38:00;;;;;;;4.53;3.67;;;10.60;99.90;;;;;;5031371;28;20171;-71
2023/12/24 09:40:26;;;;;;;3.67;3.20;;;10.60;99.90;;;;;;5047700;28;20229;-71
2023/12/24 09:42:53;;;;;;;3.77;3.53;;;10.70;99.90;;;;;;5050834;28;20178;-72
2023/12/24 09:45:20;;;;;;;3.40;3.20;;;10.70;99.90;;;;;;5036743;28;20261;-72
2023/12/24 09:47:46;;;;;;;3.33;3.13;;;10.70;99.90;;;;;;5030990;28;20182;-71
2023/12/24 09:50:12;;;;;;;3.83;3.40;;;10.80;99.90;;;;;;5032376;28;20183;-71
2023/12/24 09:52:38;;;;;;;3.70;3.37;;;10.80;99.90;;;;;;5051031;28;20202;-71
2023/12/24 09:55:05;;;;;;;3.00;2.90;;;10.80;99.90;;;;;;5053860;28;20222;-71
2023/12/24 09:57:30;;;;;;;3.63;3.33;;;10.90;99.90;;;;;;5054819;28;20183;-72
2023/12/24 09:59:56;;;;;;;4.10;3.40;;;10.90;99.90;;;;;;5054834;28;20228;-71
2023/12/24 10:02:21;;;;;;;4.43;3.60;;;11.00;99.90;;;;;;5054549;28;20183;-71
2023/12/24 10:04:47;;;;;;;3.77;3.57;;;11.00;99.90;;;;;;5054929;28;20206;-71
2023/12/24 10:07:13;;;;;;;3.80;3.60;;;11.00;99.90;;;;;;5054768;28;20266;-71
2023/12/24 10:09:56;;;;;;;3.50;3.30;;;11.10;99.90;;;;;;5042863;28;20187;-72
2023/12/24 10:12:22;;;;;;;3.67;3.23;;;11.10;99.90;;;;;;5033900;28;20195;-71
2023/12/24 10:14:55;;;;;;;3.10;3.00;;;11.20;99.90;;;;;;5034108;28;20268;-71
2023/12/24 10:17:35;;;;;;;3.30;3.10;;;11.20;99.90;;;;;;5034300;28;20192;-72
2023/12/24 10:20:06;;;;;;;3.20;3.00;;;11.20;99.90;;;;;;5035591;28;20221;-72
2023/12/24 10:22:33;;;;;;;3.10;3.00;;;11.30;99.90;;;;;;5046683;28;20195;-72
2023/12/24 10:25:02;;;;;;;3.17;3.00;;;11.30;99.90;;;;;;5054334;28;20193;-72
2023/12/24 10:27:28;;;;;;;3.37;3.17;;;11.40;99.90;;;;;;5054431;28;20270;-71
2023/12/24 10:30:06;;;;;;;3.47;3.17;;;11.40;99.90;;;;;;5053993;28;20213;-72
2023/12/24 10:32:32;;;;;;;3.30;3.10;;;11.40;99.90;;;;;;5053874;28;20364;-72
2023/12/24 10:34:58;;;;;;;3.00;2.90;;;11.40;99.90;;;;;;5052142;28;20737;-71
2023/12/24 10:37:29;;;;;;;3.10;2.93;;;11.30;99.90;;;;;;5034043;28;20179;-71
2023/12/24 10:40:10;;;;;;;3.70;3.00;;;11.30;99.90;;;;;;5034159;28;20171;-71
2023/12/24 10:42:40;;;;;;;3.10;3.00;;;11.30;99.90;;;;;;5036197;28;20195;-71
2023/12/24 10:45:11;;;;;;;2.80;2.70;;;11.30;99.90;;;;;;5033796;28;20615;-71
2023/12/24 10:47:38;;;;;;;2.90;2.80;;;11.30;99.90;;;;;;5033652;28;20198;-71
2023/12/24 10:50:04;;;;;;;3.07;2.97;;;11.40;99.90;;;;;;5034967;28;20190;-71
2023/12/24 10:52:30;;;;;;;3.20;3.00;;;11.30;99.90;;;;;;5033457;28;20675;-71
2023/12/24 10:54:58;;;;;;;3.23;3.00;;;11.30;99.90;;;;;;5033499;28;20194;-71
2023/12/24 10:57:57;;;;;;;2.90;2.80;;;11.40;99.90;;;;;;5033790;28;20176;-72
2023/12/24 11:00:24;;;;;;;3.40;3.10;;;11.40;99.90;;;;;;5033896;28;20887;-71
2023/12/24 11:02:50;;;;;;;3.70;3.50;;;11.40;99.90;;;;;;5033543;28;20178;-71
2023/12/24 11:05:42;;;;;;;3.00;2.90;;;11.40;99.90;;;;;;5046626;28;20217;-70
2023/12/24 11:08:23;;;;;;;3.20;3.00;;;11.30;99.90;;;;;;5053231;28;20278;-71
2023/12/24 11:11:06;;;;;;;3.40;3.20;;;11.30;99.90;;;;;;5053579;28;20603;-70
2023/12/24 11:13:32;;;;;;;3.70;3.50;;;11.30;99.90;;;;;;5053049;28;20681;-71
2023/12/24 11:16:06;;;;;;;3.23;3.13;;;11.30;99.90;;;;;;5035358;28;20198;-71
2023/12/24 11:18:46;;;;;;;3.50;3.23;;;11.30;99.90;;;;;;5036487;28;20183;-71
2023/12/24 11:21:13;;;;;;;3.60;3.40;;;11.40;99.90;;;;;;5033503;28;20183;-72
2023/12/24 11:23:40;;;;;;;4.50;4.10;;;11.50;99.90;;;;;;5033613;28;20183;-72
2023/12/24 11:26:29;;;;;;;6.03;5.73;;;11.50;99.90;;;;;;5033166;28;20187;-72
2023/12/24 11:28:54;;;;;;;5.43;3.67;;;11.50;99.90;;;;;;5033575;28;20183;-71
2023/12/24 11:31:25;;;;;;;3.50;3.30;;;11.50;99.90;;;;;;5033962;28;20175;-71
2023/12/24 11:33:51;;;;;;;3.80;3.50;;;11.60;99.90;;;;;;5032854;28;20202;-71
2023/12/24 11:36:18;;;;;;;3.80;3.50;;;11.70;99.90;;;;;;5032581;28;20192;-71
2023/12/24 11:38:48;;;;;;;3.53;3.33;;;11.70;99.90;;;;;;5032917;28;20176;-71
2023/12/24 11:41:21;;;;;;;3.53;3.23;;;11.80;99.90;;;;;;5044238;28;20642;-72
2023/12/24 11:44:02;;;;;;;3.37;3.17;;;11.80;99.90;;;;;;5052843;28;20691;-71
2023/12/24 11:46:29;;;;;;;3.40;3.20;;;11.90;99.90;;;;;;5050790;28;20182;-72
2023/12/24 11:49:00;;;;;;;3.20;3.00;;;11.80;99.90;;;;;;5052787;28;20171;-71
2023/12/24 11:51:26;;;;;;;4.03;3.20;;;11.80;99.90;;;;;;5052690;28;20182;-72
2023/12/24 11:54:06;;;;;;;3.20;3.00;;;11.80;99.90;;;;;;5052584;28;20739;-71
2023/12/24 11:56:32;;;;;;;3.03;2.93;;;11.80;99.90;;;;;;5052360;28;20170;-71
2023/12/24 11:59:04;;;;;;;3.00;2.90;;;11.80;99.90;;;;;;5051961;28;20277;-71
2023/12/24 12:01:31;;;;;;;3.10;3.00;;;11.80;99.90;;;;;;5052433;28;20197;-70
2023/12/24 12:04:01;;;;;;;3.40;3.10;;;11.80;99.90;;;;;;5049779;28;20174;-71
2023/12/24 12:06:34;;;;;;;3.10;3.00;;;11.80;99.90;;;;;;5052220;28;20321;-71
2023/12/24 12:09:06;;;;;;;3.73;3.43;;;11.80;99.90;;;;;;5034517;28;20265;-72
2023/12/24 12:11:32;;;;;;;3.93;3.30;;;11.80;99.90;;;;;;5052546;28;20174;-72
2023/12/24 12:14:01;;;;;;;3.40;3.20;;;11.80;99.90;;;;;;5051089;28;20550;-70
2023/12/24 12:16:27;;;;;;;3.23;3.03;;;11.80;99.90;;;;;;5051062;28;20569;-71
2023/12/24 12:18:53;;;;;;;3.40;3.20;;;11.80;99.90;;;;;;5052206;28;20185;-71
2023/12/24 12:21:19;;;;;;;4.03;3.77;;;11.70;99.90;;;;;;5051900;28;20183;-72
2023/12/24 12:23:44;;;;;;;3.40;3.20;;;11.60;99.90;;;;;;5034677;28;20267;-71
2023/12/24 12:26:10;;;;;;;4.10;3.80;;;11.50;99.90;;;;;;5031728;28;20203;-71
2023/12/24 12:28:36;;;;;;;4.10;3.80;;;11.40;99.90;;;;;;5031719;28;20191;-71
2023/12/24 12:31:02;;;;;;;10.70;8.47;;;11.40;99.90;;;;;;5031909;28;20266;-71
2023/12/24 12:33:28;;;;;;;4.30;4.00;;;11.30;99.90;;;;;;5051684;28;20209;-73
2023/12/24 12:35:55;;;;;;;7.20;5.77;;;11.30;99.90;;;;;;5033473;28;20198;-72
2023/12/24 12:38:24;;;;;;;4.50;4.17;;;11.20;99.90;;;;;;5038075;28;20175;-71
2023/12/24 12:40:53;;;;;;;15.83;7.83;;;11.20;99.90;;;;;;5032262;28;20270;-73
2023/12/24 12:43:20;;;;;;;9.77;7.00;;;11.10;99.90;;;;;;5032238;28;20175;-73
2023/12/24 12:45:46;;;;;;;5.00;4.30;;;11.10;99.90;;;;;;5031964;28;20199;-73
2023/12/24 12:48:11;;;;;;;5.97;4.03;;;11.10;99.90;;;;;;5032405;28;20176;-72